sensor_id;sensor_type;location;lat;lon;timestamp;P1;durP1;ratioP1;P2;durP2;ratioP2
14118;SDS011;7138;49.246;9.100;2022-12-18T00:01:21;54.75;;;23.30;;
14118;SDS011;7138;49.246;9.100;2022-12-18T00:06:17;48.88;;;21.52;;
14118;SDS011;7138;49.246;9.100;2022-12-18T00:08:45;48.85;;;21.40;;
14118;SDS011;7138;49.246;9.100;2022-12-18T00:11:13;47.65;;;23.20;;
14118;SDS011;7138;49.246;9.100;2022-12-18T00:13:42;48.88;;;23.65;;
14118;SDS011;7138;49.246;9.100;2022-12-18T00:16:09;51.92;;;23.05;;
14118;SDS011;7138;49.246;9.100;2022-12-18T00:21:05;46.97;;;22.48;;
14118;SDS011;7138;49.246;9.100;2022-12-18T00:26:03;49.88;;;20.92;;
14118;SDS011;7138;49.246;9.100;2022-12-18T00:28:32;54.25;;;20.95;;
14118;SDS011;7138;49.246;9.100;2022-12-18T00:31:01;50.40;;;21.33;;
14118;SDS011;7138;49.246;9.100;2022-12-18T00:33:28;45.53;;;20.33;;
14118;SDS011;7138;49.246;9.100;2022-12-18T00:35:59;45.65;;;21.08;;
14118;SDS011;7138;49.246;9.100;2022-12-18T00:38:26;49.47;;;21.52;;
14118;SDS011;7138;49.246;9.100;2022-12-18T00:40:52;48.20;;;21.05;;
14118;SDS011;7138;49.246;9.100;2022-12-18T00:43:19;51.45;;;20.90;;
14118;SDS011;7138;49.246;9.100;2022-12-18T00:45:45;47.63;;;21.55;;
14118;SDS011;7138;49.246;9.100;2022-12-18T00:48:11;45.08;;;20.48;;
14118;SDS011;7138;49.246;9.100;2022-12-18T00:50:37;47.05;;;20.80;;
14118;SDS011;7138;49.246;9.100;2022-12-18T00:53:03;46.92;;;20.02;;
14118;SDS011;7138;49.246;9.100;2022-12-18T00:55:29;43.08;;;20.08;;
14118;SDS011;7138;49.246;9.100;2022-12-18T00:57:55;46.58;;;20.85;;
14118;SDS011;7138;49.246;9.100;2022-12-18T01:00:22;52.25;;;21.83;;
14118;SDS011;7138;49.246;9.100;2022-12-18T01:02:48;45.28;;;21.02;;
14118;SDS011;7138;49.246;9.100;2022-12-18T01:05:14;51.08;;;20.83;;
14118;SDS011;7138;49.246;9.100;2022-12-18T01:07:40;50.60;;;21.85;;
14118;SDS011;7138;49.246;9.100;2022-12-18T01:10:07;45.45;;;20.08;;
14118;SDS011;7138;49.246;9.100;2022-12-18T01:12:36;52.85;;;22.83;;
14118;SDS011;7138;49.246;9.100;2022-12-18T01:15:02;51.08;;;21.10;;
14118;SDS011;7138;49.246;9.100;2022-12-18T01:17:32;50.05;;;20.85;;
14118;SDS011;7138;49.246;9.100;2022-12-18T01:19:58;44.42;;;19.35;;
14118;SDS011;7138;49.246;9.100;2022-12-18T01:22:24;41.95;;;20.30;;
14118;SDS011;7138;49.246;9.100;2022-12-18T01:24:50;47.00;;;20.90;;
14118;SDS011;7138;49.246;9.100;2022-12-18T01:27:16;50.38;;;21.83;;
14118;SDS011;7138;49.246;9.100;2022-12-18T01:29:42;45.40;;;20.27;;
14118;SDS011;7138;49.246;9.100;2022-12-18T01:32:08;45.10;;;20.77;;
14118;SDS011;7138;49.246;9.100;2022-12-18T01:34:36;53.38;;;22.25;;
14118;SDS011;7138;49.246;9.100;2022-12-18T01:37:02;49.38;;;21.60;;
14118;SDS011;7138;49.246;9.100;2022-12-18T01:39:29;49.55;;;22.50;;
14118;SDS011;7138;49.246;9.100;2022-12-18T01:41:56;51.67;;;22.45;;
14118;SDS011;7138;49.246;9.100;2022-12-18T01:44:51;42.25;;;20.63;;
14118;SDS011;7138;49.246;9.100;2022-12-18T01:47:23;53.75;;;22.13;;
14118;SDS011;7138;49.246;9.100;2022-12-18T01:49:57;59.92;;;22.67;;
14118;SDS011;7138;49.246;9.100;2022-12-18T01:52:26;46.20;;;21.73;;
14118;SDS011;7138;49.246;9.100;2022-12-18T01:54:57;53.13;;;22.90;;
14118;SDS011;7138;49.246;9.100;2022-12-18T01:57:25;49.75;;;23.60;;
14118;SDS011;7138;49.246;9.100;2022-12-18T01:59:53;48.90;;;22.10;;
14118;SDS011;7138;49.246;9.100;2022-12-18T02:02:26;48.92;;;21.38;;
14118;SDS011;7138;49.246;9.100;2022-12-18T02:04:54;50.63;;;21.70;;
14118;SDS011;7138;49.246;9.100;2022-12-18T02:07:23;46.35;;;21.08;;
14118;SDS011;7138;49.246;9.100;2022-12-18T02:10:02;47.53;;;22.02;;
14118;SDS011;7138;49.246;9.100;2022-12-18T02:12:41;49.42;;;21.52;;
14118;SDS011;7138;49.246;9.100;2022-12-18T02:15:14;48.00;;;22.08;;
14118;SDS011;7138;49.246;9.100;2022-12-18T02:17:47;46.88;;;20.92;;
14118;SDS011;7138;49.246;9.100;2022-12-18T02:20:24;47.60;;;20.88;;
14118;SDS011;7138;49.246;9.100;2022-12-18T02:23:02;51.60;;;22.27;;
14118;SDS011;7138;49.246;9.100;2022-12-18T02:25:59;51.40;;;21.58;;
14118;SDS011;7138;49.246;9.100;2022-12-18T02:28:40;56.08;;;23.60;;
14118;SDS011;7138;49.246;9.100;2022-12-18T02:31:11;50.75;;;22.35;;
14118;SDS011;7138;49.246;9.100;2022-12-18T02:33:47;51.30;;;20.00;;
14118;SDS011;7138;49.246;9.100;2022-12-18T02:36:17;48.33;;;21.75;;
14118;SDS011;7138;49.246;9.100;2022-12-18T02:38:47;51.88;;;22.02;;
14118;SDS011;7138;49.246;9.100;2022-12-18T02:41:16;56.00;;;23.48;;
14118;SDS011;7138;49.246;9.100;2022-12-18T02:43:47;54.65;;;23.08;;
14118;SDS011;7138;49.246;9.100;2022-12-18T02:46:24;55.72;;;22.50;;
14118;SDS011;7138;49.246;9.100;2022-12-18T02:49:02;53.75;;;24.10;;
14118;SDS011;7138;49.246;9.100;2022-12-18T02:51:45;54.80;;;24.45;;
14118;SDS011;7138;49.246;9.100;2022-12-18T02:54:22;59.13;;;24.73;;
14118;SDS011;7138;49.246;9.100;2022-12-18T02:57:03;50.38;;;22.58;;
14118;SDS011;7138;49.246;9.100;2022-12-18T02:59:45;55.72;;;23.65;;
14118;SDS011;7138;49.246;9.100;2022-12-18T03:02:24;54.70;;;24.85;;
14118;SDS011;7138;49.246;9.100;2022-12-18T03:05:01;50.35;;;23.25;;
14118;SDS011;7138;49.246;9.100;2022-12-18T03:07:38;57.05;;;23.88;;
14118;SDS011;7138;49.246;9.100;2022-12-18T03:10:13;65.75;;;24.23;;
14118;SDS011;7138;49.246;9.100;2022-12-18T03:12:46;60.47;;;25.00;;
14118;SDS011;7138;49.246;9.100;2022-12-18T03:15:19;57.10;;;23.77;;
14118;SDS011;7138;49.246;9.100;2022-12-18T03:17:54;59.17;;;25.10;;
14118;SDS011;7138;49.246;9.100;2022-12-18T03:20:26;61.97;;;25.23;;
14118;SDS011;7138;49.246;9.100;2022-12-18T03:22:59;54.33;;;22.85;;
14118;SDS011;7138;49.246;9.100;2022-12-18T03:25:34;53.90;;;23.33;;
14118;SDS011;7138;49.246;9.100;2022-12-18T03:28:07;55.17;;;24.83;;
14118;SDS011;7138;49.246;9.100;2022-12-18T03:30:40;50.80;;;21.58;;
14118;SDS011;7138;49.246;9.100;2022-12-18T03:33:10;51.03;;;22.08;;
14118;SDS011;7138;49.246;9.100;2022-12-18T03:35:44;52.90;;;22.70;;
14118;SDS011;7138;49.246;9.100;2022-12-18T03:38:11;56.03;;;24.73;;
14118;SDS011;7138;49.246;9.100;2022-12-18T03:40:41;53.60;;;22.35;;
14118;SDS011;7138;49.246;9.100;2022-12-18T03:43:24;53.20;;;23.33;;
14118;SDS011;7138;49.246;9.100;2022-12-18T03:46:05;55.45;;;24.40;;
14118;SDS011;7138;49.246;9.100;2022-12-18T03:48:39;59.50;;;24.90;;
14118;SDS011;7138;49.246;9.100;2022-12-18T03:51:17;56.70;;;24.27;;
14118;SDS011;7138;49.246;9.100;2022-12-18T03:53:52;53.20;;;22.50;;
14118;SDS011;7138;49.246;9.100;2022-12-18T03:56:23;56.55;;;24.40;;
14118;SDS011;7138;49.246;9.100;2022-12-18T03:58:57;50.25;;;22.83;;
14118;SDS011;7138;49.246;9.100;2022-12-18T04:01:29;52.17;;;23.50;;
14118;SDS011;7138;49.246;9.100;2022-12-18T04:03:59;54.38;;;23.35;;
14118;SDS011;7138;49.246;9.100;2022-12-18T04:06:28;70.00;;;28.35;;
14118;SDS011;7138;49.246;9.100;2022-12-18T04:08:56;59.58;;;24.77;;
14118;SDS011;7138;49.246;9.100;2022-12-18T04:11:23;52.63;;;23.15;;
14118;SDS011;7138;49.246;9.100;2022-12-18T04:13:49;51.80;;;21.75;;
14118;SDS011;7138;49.246;9.100;2022-12-18T04:16:16;62.67;;;25.25;;
14118;SDS011;7138;49.246;9.100;2022-12-18T04:18:42;61.95;;;23.73;;
14118;SDS011;7138;49.246;9.100;2022-12-18T04:21:08;57.38;;;25.30;;
14118;SDS011;7138;49.246;9.100;2022-12-18T04:23:35;58.70;;;24.60;;
14118;SDS011;7138;49.246;9.100;2022-12-18T04:26:00;57.90;;;24.08;;
14118;SDS011;7138;49.246;9.100;2022-12-18T04:28:26;51.83;;;22.10;;
14118;SDS011;7138;49.246;9.100;2022-12-18T04:30:52;62.50;;;25.85;;
14118;SDS011;7138;49.246;9.100;2022-12-18T04:33:19;63.97;;;25.95;;
14118;SDS011;7138;49.246;9.100;2022-12-18T04:35:45;59.35;;;24.55;;
14118;SDS011;7138;49.246;9.100;2022-12-18T04:38:11;55.30;;;24.00;;
14118;SDS011;7138;49.246;9.100;2022-12-18T04:40:37;56.92;;;23.92;;
14118;SDS011;7138;49.246;9.100;2022-12-18T04:43:04;56.08;;;22.52;;
14118;SDS011;7138;49.246;9.100;2022-12-18T04:45:30;56.67;;;25.20;;
14118;SDS011;7138;49.246;9.100;2022-12-18T04:47:57;48.03;;;22.33;;
14118;SDS011;7138;49.246;9.100;2022-12-18T04:50:24;61.50;;;23.48;;
14118;SDS011;7138;49.246;9.100;2022-12-18T04:52:50;56.05;;;24.60;;
14118;SDS011;7138;49.246;9.100;2022-12-18T04:55:16;54.28;;;23.27;;
14118;SDS011;7138;49.246;9.100;2022-12-18T04:57:42;61.45;;;24.95;;
14118;SDS011;7138;49.246;9.100;2022-12-18T05:00:08;58.00;;;23.83;;
14118;SDS011;7138;49.246;9.100;2022-12-18T05:02:35;56.00;;;23.27;;
14118;SDS011;7138;49.246;9.100;2022-12-18T05:05:01;53.53;;;22.60;;
14118;SDS011;7138;49.246;9.100;2022-12-18T05:07:29;61.20;;;23.08;;
14118;SDS011;7138;49.246;9.100;2022-12-18T05:09:55;57.38;;;24.17;;
14118;SDS011;7138;49.246;9.100;2022-12-18T05:12:21;56.53;;;23.38;;
14118;SDS011;7138;49.246;9.100;2022-12-18T05:14:47;44.90;;;21.10;;
14118;SDS011;7138;49.246;9.100;2022-12-18T05:17:13;58.75;;;23.40;;
14118;SDS011;7138;49.246;9.100;2022-12-18T05:19:38;56.40;;;24.67;;
14118;SDS011;7138;49.246;9.100;2022-12-18T05:22:04;60.28;;;23.30;;
14118;SDS011;7138;49.246;9.100;2022-12-18T05:24:31;55.00;;;22.77;;
14118;SDS011;7138;49.246;9.100;2022-12-18T05:26:57;51.58;;;20.90;;
14118;SDS011;7138;49.246;9.100;2022-12-18T05:29:23;57.55;;;23.70;;
14118;SDS011;7138;49.246;9.100;2022-12-18T05:31:49;59.38;;;23.90;;
14118;SDS011;7138;49.246;9.100;2022-12-18T05:34:15;50.50;;;22.75;;
14118;SDS011;7138;49.246;9.100;2022-12-18T05:36:41;48.72;;;19.92;;
14118;SDS011;7138;49.246;9.100;2022-12-18T05:39:08;53.33;;;23.25;;
14118;SDS011;7138;49.246;9.100;2022-12-18T05:41:35;58.25;;;23.33;;
14118;SDS011;7138;49.246;9.100;2022-12-18T05:44:01;53.30;;;22.70;;
14118;SDS011;7138;49.246;9.100;2022-12-18T05:46:28;51.53;;;22.50;;
14118;SDS011;7138;49.246;9.100;2022-12-18T05:48:54;63.13;;;24.65;;
14118;SDS011;7138;49.246;9.100;2022-12-18T05:51:24;55.33;;;22.70;;
14118;SDS011;7138;49.246;9.100;2022-12-18T05:53:49;57.58;;;23.05;;
14118;SDS011;7138;49.246;9.100;2022-12-18T05:56:16;57.55;;;23.25;;
14118;SDS011;7138;49.246;9.100;2022-12-18T05:58:47;56.42;;;22.52;;
14118;SDS011;7138;49.246;9.100;2022-12-18T06:01:18;53.05;;;22.75;;
14118;SDS011;7138;49.246;9.100;2022-12-18T06:03:47;62.17;;;22.67;;
14118;SDS011;7138;49.246;9.100;2022-12-18T06:06:13;58.97;;;24.13;;
14118;SDS011;7138;49.246;9.100;2022-12-18T06:08:41;56.85;;;23.45;;
14118;SDS011;7138;49.246;9.100;2022-12-18T06:11:07;57.75;;;22.73;;
14118;SDS011;7138;49.246;9.100;2022-12-18T06:13:33;59.38;;;23.13;;
14118;SDS011;7138;49.246;9.100;2022-12-18T06:16:02;54.38;;;21.70;;
14118;SDS011;7138;49.246;9.100;2022-12-18T06:18:29;48.97;;;22.23;;
14118;SDS011;7138;49.246;9.100;2022-12-18T06:20:55;48.00;;;21.00;;
14118;SDS011;7138;49.246;9.100;2022-12-18T06:23:21;51.95;;;22.25;;
14118;SDS011;7138;49.246;9.100;2022-12-18T06:25:48;58.08;;;22.90;;
14118;SDS011;7138;49.246;9.100;2022-12-18T06:28:13;53.33;;;22.10;;
14118;SDS011;7138;49.246;9.100;2022-12-18T06:30:39;52.47;;;21.48;;
14118;SDS011;7138;49.246;9.100;2022-12-18T06:33:09;54.53;;;22.45;;
14118;SDS011;7138;49.246;9.100;2022-12-18T06:35:35;51.05;;;21.67;;
14118;SDS011;7138;49.246;9.100;2022-12-18T06:38:01;53.78;;;21.42;;
14118;SDS011;7138;49.246;9.100;2022-12-18T06:40:27;59.47;;;23.10;;
14118;SDS011;7138;49.246;9.100;2022-12-18T06:42:53;47.75;;;19.08;;
14118;SDS011;7138;49.246;9.100;2022-12-18T06:45:19;52.58;;;22.13;;
14118;SDS011;7138;49.246;9.100;2022-12-18T06:47:45;52.42;;;21.60;;
14118;SDS011;7138;49.246;9.100;2022-12-18T06:50:12;51.50;;;22.33;;
14118;SDS011;7138;49.246;9.100;2022-12-18T06:52:38;55.80;;;22.73;;
14118;SDS011;7138;49.246;9.100;2022-12-18T06:55:05;47.85;;;20.25;;
14118;SDS011;7138;49.246;9.100;2022-12-18T06:57:33;55.93;;;22.37;;
14118;SDS011;7138;49.246;9.100;2022-12-18T06:59:59;48.63;;;20.98;;
14118;SDS011;7138;49.246;9.100;2022-12-18T07:02:25;59.07;;;22.43;;
14118;SDS011;7138;49.246;9.100;2022-12-18T07:04:50;55.87;;;22.17;;
14118;SDS011;7138;49.246;9.100;2022-12-18T07:07:18;54.63;;;20.73;;
14118;SDS011;7138;49.246;9.100;2022-12-18T07:09:44;59.00;;;22.37;;
14118;SDS011;7138;49.246;9.100;2022-12-18T07:12:09;55.88;;;22.60;;
14118;SDS011;7138;49.246;9.100;2022-12-18T07:14:35;56.80;;;21.08;;
14118;SDS011;7138;49.246;9.100;2022-12-18T07:17:01;41.70;;;17.17;;
14118;SDS011;7138;49.246;9.100;2022-12-18T07:19:27;53.60;;;21.40;;
14118;SDS011;7138;49.246;9.100;2022-12-18T07:21:54;54.20;;;20.47;;
14118;SDS011;7138;49.246;9.100;2022-12-18T07:24:21;54.40;;;20.63;;
14118;SDS011;7138;49.246;9.100;2022-12-18T07:26:47;51.03;;;19.65;;
14118;SDS011;7138;49.246;9.100;2022-12-18T07:29:13;47.73;;;18.80;;
14118;SDS011;7138;49.246;9.100;2022-12-18T07:31:39;60.73;;;21.20;;
14118;SDS011;7138;49.246;9.100;2022-12-18T07:34:05;56.80;;;21.50;;
14118;SDS011;7138;49.246;9.100;2022-12-18T07:36:35;47.90;;;20.02;;
14118;SDS011;7138;49.246;9.100;2022-12-18T07:39:01;51.10;;;20.30;;
14118;SDS011;7138;49.246;9.100;2022-12-18T07:41:28;54.58;;;20.20;;
14118;SDS011;7138;49.246;9.100;2022-12-18T07:43:54;52.90;;;19.98;;
14118;SDS011;7138;49.246;9.100;2022-12-18T07:46:20;49.63;;;20.08;;
14118;SDS011;7138;49.246;9.100;2022-12-18T07:48:46;47.17;;;19.58;;
14118;SDS011;7138;49.246;9.100;2022-12-18T07:51:12;52.38;;;19.90;;
14118;SDS011;7138;49.246;9.100;2022-12-18T07:53:38;47.25;;;19.52;;
14118;SDS011;7138;49.246;9.100;2022-12-18T07:56:06;52.92;;;19.98;;
14118;SDS011;7138;49.246;9.100;2022-12-18T07:58:35;53.45;;;21.02;;
14118;SDS011;7138;49.246;9.100;2022-12-18T08:01:02;47.00;;;19.85;;
14118;SDS011;7138;49.246;9.100;2022-12-18T08:03:29;50.38;;;19.45;;
14118;SDS011;7138;49.246;9.100;2022-12-18T08:05:57;59.47;;;20.60;;
14118;SDS011;7138;49.246;9.100;2022-12-18T08:10:50;51.10;;;18.77;;
14118;SDS011;7138;49.246;9.100;2022-12-18T08:13:16;52.10;;;18.48;;
14118;SDS011;7138;49.246;9.100;2022-12-18T08:15:43;53.25;;;21.10;;
14118;SDS011;7138;49.246;9.100;2022-12-18T08:18:09;52.70;;;20.55;;
14118;SDS011;7138;49.246;9.100;2022-12-18T08:20:35;48.22;;;18.90;;
14118;SDS011;7138;49.246;9.100;2022-12-18T08:23:01;53.17;;;20.77;;
14118;SDS011;7138;49.246;9.100;2022-12-18T08:25:27;49.35;;;18.05;;
14118;SDS011;7138;49.246;9.100;2022-12-18T08:27:53;47.92;;;18.92;;
14118;SDS011;7138;49.246;9.100;2022-12-18T08:30:20;50.28;;;19.45;;
14118;SDS011;7138;49.246;9.100;2022-12-18T08:32:49;50.55;;;19.80;;
14118;SDS011;7138;49.246;9.100;2022-12-18T08:35:18;56.72;;;19.80;;
14118;SDS011;7138;49.246;9.100;2022-12-18T08:37:44;49.95;;;20.40;;
14118;SDS011;7138;49.246;9.100;2022-12-18T08:40:10;60.67;;;20.42;;
14118;SDS011;7138;49.246;9.100;2022-12-18T08:42:37;61.15;;;23.20;;
14118;SDS011;7138;49.246;9.100;2022-12-18T08:45:22;51.05;;;19.17;;
14118;SDS011;7138;49.246;9.100;2022-12-18T08:47:49;55.38;;;19.50;;
14118;SDS011;7138;49.246;9.100;2022-12-18T08:50:15;56.70;;;21.52;;
14118;SDS011;7138;49.246;9.100;2022-12-18T08:52:41;57.45;;;21.58;;
14118;SDS011;7138;49.246;9.100;2022-12-18T08:55:08;59.20;;;20.27;;
14118;SDS011;7138;49.246;9.100;2022-12-18T08:57:34;55.50;;;21.85;;
14118;SDS011;7138;49.246;9.100;2022-12-18T09:00:00;55.80;;;20.77;;
14118;SDS011;7138;49.246;9.100;2022-12-18T09:02:26;54.92;;;20.63;;
14118;SDS011;7138;49.246;9.100;2022-12-18T09:04:54;38.25;;;15.52;;
14118;SDS011;7138;49.246;9.100;2022-12-18T09:07:20;54.10;;;21.58;;
14118;SDS011;7138;49.246;9.100;2022-12-18T09:09:45;41.97;;;17.35;;
14118;SDS011;7138;49.246;9.100;2022-12-18T09:12:11;55.20;;;22.05;;
14118;SDS011;7138;49.246;9.100;2022-12-18T09:14:37;56.50;;;20.10;;
14118;SDS011;7138;49.246;9.100;2022-12-18T09:17:03;53.22;;;20.50;;
14118;SDS011;7138;49.246;9.100;2022-12-18T09:19:29;48.55;;;19.75;;
14118;SDS011;7138;49.246;9.100;2022-12-18T09:21:56;51.50;;;20.10;;
14118;SDS011;7138;49.246;9.100;2022-12-18T09:24:22;55.53;;;20.48;;
14118;SDS011;7138;49.246;9.100;2022-12-18T09:26:48;52.00;;;20.83;;
14118;SDS011;7138;49.246;9.100;2022-12-18T09:29:20;52.40;;;19.77;;
14118;SDS011;7138;49.246;9.100;2022-12-18T09:31:46;52.22;;;19.52;;
14118;SDS011;7138;49.246;9.100;2022-12-18T09:34:12;56.85;;;21.92;;
14118;SDS011;7138;49.246;9.100;2022-12-18T09:36:38;51.05;;;19.20;;
14118;SDS011;7138;49.246;9.100;2022-12-18T09:39:05;52.38;;;21.30;;
14118;SDS011;7138;49.246;9.100;2022-12-18T09:41:41;54.58;;;20.33;;
14118;SDS011;7138;49.246;9.100;2022-12-18T09:44:14;57.55;;;21.35;;
14118;SDS011;7138;49.246;9.100;2022-12-18T09:46:48;52.90;;;20.05;;
14118;SDS011;7138;49.246;9.100;2022-12-18T09:49:28;55.78;;;22.10;;
14118;SDS011;7138;49.246;9.100;2022-12-18T09:52:01;51.50;;;20.88;;
14118;SDS011;7138;49.246;9.100;2022-12-18T09:54:35;48.92;;;20.08;;
14118;SDS011;7138;49.246;9.100;2022-12-18T09:57:05;54.00;;;20.90;;
14118;SDS011;7138;49.246;9.100;2022-12-18T09:59:32;51.90;;;20.45;;
14118;SDS011;7138;49.246;9.100;2022-12-18T10:02:11;54.60;;;20.80;;
14118;SDS011;7138;49.246;9.100;2022-12-18T10:04:40;53.53;;;21.10;;
14118;SDS011;7138;49.246;9.100;2022-12-18T10:07:07;55.75;;;21.90;;
14118;SDS011;7138;49.246;9.100;2022-12-18T10:09:45;52.17;;;20.95;;
14118;SDS011;7138;49.246;9.100;2022-12-18T10:12:27;53.97;;;20.75;;
14118;SDS011;7138;49.246;9.100;2022-12-18T10:15:01;52.35;;;19.73;;
14118;SDS011;7138;49.246;9.100;2022-12-18T10:17:36;47.30;;;18.83;;
14118;SDS011;7138;49.246;9.100;2022-12-18T10:20:14;49.13;;;19.00;;
14118;SDS011;7138;49.246;9.100;2022-12-18T10:22:52;56.05;;;21.48;;
14118;SDS011;7138;49.246;9.100;2022-12-18T10:25:26;47.63;;;20.42;;
14118;SDS011;7138;49.246;9.100;2022-12-18T10:28:07;56.08;;;19.77;;
14118;SDS011;7138;49.246;9.100;2022-12-18T10:30:38;51.00;;;19.75;;
14118;SDS011;7138;49.246;9.100;2022-12-18T10:33:08;52.70;;;20.58;;
14118;SDS011;7138;49.246;9.100;2022-12-18T10:35:40;52.88;;;20.17;;
14118;SDS011;7138;49.246;9.100;2022-12-18T10:38:20;47.67;;;20.83;;
14118;SDS011;7138;49.246;9.100;2022-12-18T10:40:51;49.78;;;20.20;;
14118;SDS011;7138;49.246;9.100;2022-12-18T10:43:21;48.35;;;19.48;;
14118;SDS011;7138;49.246;9.100;2022-12-18T10:45:58;57.22;;;22.88;;
14118;SDS011;7138;49.246;9.100;2022-12-18T10:48:50;50.20;;;20.25;;
14118;SDS011;7138;49.246;9.100;2022-12-18T10:51:20;54.13;;;20.55;;
14118;SDS011;7138;49.246;9.100;2022-12-18T10:53:51;54.35;;;22.85;;
14118;SDS011;7138;49.246;9.100;2022-12-18T10:56:23;53.65;;;21.83;;
14118;SDS011;7138;49.246;9.100;2022-12-18T10:58:56;52.58;;;20.88;;
14118;SDS011;7138;49.246;9.100;2022-12-18T11:01:25;53.78;;;21.30;;
14118;SDS011;7138;49.246;9.100;2022-12-18T11:03:58;57.20;;;21.45;;
14118;SDS011;7138;49.246;9.100;2022-12-18T11:06:32;52.60;;;20.77;;
14118;SDS011;7138;49.246;9.100;2022-12-18T11:08:59;49.60;;;20.77;;
14118;SDS011;7138;49.246;9.100;2022-12-18T11:11:29;50.92;;;19.20;;
14118;SDS011;7138;49.246;9.100;2022-12-18T11:13:58;50.05;;;20.10;;
14118;SDS011;7138;49.246;9.100;2022-12-18T11:16:29;55.90;;;21.15;;
14118;SDS011;7138;49.246;9.100;2022-12-18T11:19:10;52.97;;;20.65;;
14118;SDS011;7138;49.246;9.100;2022-12-18T11:21:47;53.20;;;20.33;;
14118;SDS011;7138;49.246;9.100;2022-12-18T11:24:17;47.53;;;19.27;;
14118;SDS011;7138;49.246;9.100;2022-12-18T11:26:52;47.55;;;19.33;;
14118;SDS011;7138;49.246;9.100;2022-12-18T11:29:23;52.97;;;19.92;;
14118;SDS011;7138;49.246;9.100;2022-12-18T11:32:08;51.63;;;20.73;;
14118;SDS011;7138;49.246;9.100;2022-12-18T11:34:58;45.15;;;17.92;;
14118;SDS011;7138;49.246;9.100;2022-12-18T11:37:34;46.72;;;19.05;;
14118;SDS011;7138;49.246;9.100;2022-12-18T11:40:03;45.85;;;20.40;;
14118;SDS011;7138;49.246;9.100;2022-12-18T11:42:41;50.20;;;18.60;;
14118;SDS011;7138;49.246;9.100;2022-12-18T11:45:26;48.15;;;19.67;;
14118;SDS011;7138;49.246;9.100;2022-12-18T11:48:00;47.15;;;20.25;;
14118;SDS011;7138;49.246;9.100;2022-12-18T11:50:33;55.03;;;21.27;;
14118;SDS011;7138;49.246;9.100;2022-12-18T11:53:12;45.90;;;19.40;;
14118;SDS011;7138;49.246;9.100;2022-12-18T11:55:40;49.15;;;19.25;;
14118;SDS011;7138;49.246;9.100;2022-12-18T11:58:23;46.30;;;18.25;;
14118;SDS011;7138;49.246;9.100;2022-12-18T12:01:11;48.90;;;18.65;;
14118;SDS011;7138;49.246;9.100;2022-12-18T12:04:05;46.65;;;18.75;;
14118;SDS011;7138;49.246;9.100;2022-12-18T12:07:03;42.13;;;16.10;;
14118;SDS011;7138;49.246;9.100;2022-12-18T12:09:46;47.65;;;19.65;;
14118;SDS011;7138;49.246;9.100;2022-12-18T12:12:27;51.03;;;20.47;;
14118;SDS011;7138;49.246;9.100;2022-12-18T12:15:16;35.50;;;15.13;;
14118;SDS011;7138;49.246;9.100;2022-12-18T12:17:55;44.63;;;18.50;;
14118;SDS011;7138;49.246;9.100;2022-12-18T12:20:33;48.30;;;18.20;;
14118;SDS011;7138;49.246;9.100;2022-12-18T12:23:14;52.67;;;20.77;;
14118;SDS011;7138;49.246;9.100;2022-12-18T12:25:52;44.60;;;18.35;;
14118;SDS011;7138;49.246;9.100;2022-12-18T12:28:31;47.85;;;21.20;;
14118;SDS011;7138;49.246;9.100;2022-12-18T12:31:24;47.72;;;19.30;;
14118;SDS011;7138;49.246;9.100;2022-12-18T12:34:09;44.03;;;19.30;;
14118;SDS011;7138;49.246;9.100;2022-12-18T12:36:49;47.78;;;20.50;;
14118;SDS011;7138;49.246;9.100;2022-12-18T12:39:33;45.08;;;19.90;;
14118;SDS011;7138;49.246;9.100;2022-12-18T12:42:02;49.67;;;19.80;;
14118;SDS011;7138;49.246;9.100;2022-12-18T12:45:00;48.05;;;20.42;;
14118;SDS011;7138;49.246;9.100;2022-12-18T12:47:33;44.38;;;19.52;;
14118;SDS011;7138;49.246;9.100;2022-12-18T12:50:11;45.33;;;17.92;;
14118;SDS011;7138;49.246;9.100;2022-12-18T12:52:43;44.88;;;19.50;;
14118;SDS011;7138;49.246;9.100;2022-12-18T12:55:16;50.38;;;20.17;;
14118;SDS011;7138;49.246;9.100;2022-12-18T12:57:45;46.00;;;19.38;;
14118;SDS011;7138;49.246;9.100;2022-12-18T13:00:23;48.35;;;19.67;;
14118;SDS011;7138;49.246;9.100;2022-12-18T13:02:57;48.70;;;19.13;;
14118;SDS011;7138;49.246;9.100;2022-12-18T13:05:38;47.38;;;19.20;;
14118;SDS011;7138;49.246;9.100;2022-12-18T13:08:21;45.72;;;18.48;;
14118;SDS011;7138;49.246;9.100;2022-12-18T13:10:52;50.38;;;20.58;;
14118;SDS011;7138;49.246;9.100;2022-12-18T13:13:49;49.58;;;20.05;;
14118;SDS011;7138;49.246;9.100;2022-12-18T13:16:18;47.05;;;19.63;;
14118;SDS011;7138;49.246;9.100;2022-12-18T13:18:51;47.90;;;19.65;;
14118;SDS011;7138;49.246;9.100;2022-12-18T13:21:21;46.95;;;19.73;;
14118;SDS011;7138;49.246;9.100;2022-12-18T13:23:52;51.58;;;19.60;;
14118;SDS011;7138;49.246;9.100;2022-12-18T13:29:01;45.88;;;18.25;;
14118;SDS011;7138;49.246;9.100;2022-12-18T13:34:26;45.15;;;18.85;;
14118;SDS011;7138;49.246;9.100;2022-12-18T13:36:55;46.85;;;19.40;;
14118;SDS011;7138;49.246;9.100;2022-12-18T13:40:01;46.78;;;20.52;;
14118;SDS011;7138;49.246;9.100;2022-12-18T13:42:50;47.47;;;19.70;;
14118;SDS011;7138;49.246;9.100;2022-12-18T13:45:39;42.72;;;19.33;;
14118;SDS011;7138;49.246;9.100;2022-12-18T13:48:14;49.95;;;20.38;;
14118;SDS011;7138;49.246;9.100;2022-12-18T13:53:33;45.90;;;18.67;;
14118;SDS011;7138;49.246;9.100;2022-12-18T13:56:04;44.20;;;18.27;;
14118;SDS011;7138;49.246;9.100;2022-12-18T13:58:32;49.17;;;20.13;;
14118;SDS011;7138;49.246;9.100;2022-12-18T14:00:58;45.55;;;20.45;;
14118;SDS011;7138;49.246;9.100;2022-12-18T14:03:27;46.33;;;19.08;;
14118;SDS011;7138;49.246;9.100;2022-12-18T14:05:56;48.97;;;19.38;;
14118;SDS011;7138;49.246;9.100;2022-12-18T14:08:30;47.80;;;20.48;;
14118;SDS011;7138;49.246;9.100;2022-12-18T14:11:03;46.50;;;20.55;;
14118;SDS011;7138;49.246;9.100;2022-12-18T14:13:33;43.10;;;17.77;;
14118;SDS011;7138;49.246;9.100;2022-12-18T14:16:03;49.78;;;19.92;;
14118;SDS011;7138;49.246;9.100;2022-12-18T14:21:14;50.42;;;18.75;;
14118;SDS011;7138;49.246;9.100;2022-12-18T14:23:46;43.78;;;18.25;;
14118;SDS011;7138;49.246;9.100;2022-12-18T14:26:19;46.55;;;19.70;;
14118;SDS011;7138;49.246;9.100;2022-12-18T14:28:51;50.85;;;20.27;;
14118;SDS011;7138;49.246;9.100;2022-12-18T14:31:18;45.58;;;18.73;;
14118;SDS011;7138;49.246;9.100;2022-12-18T14:33:46;48.17;;;20.02;;
14118;SDS011;7138;49.246;9.100;2022-12-18T14:36:14;48.45;;;18.48;;
14118;SDS011;7138;49.246;9.100;2022-12-18T14:38:43;52.17;;;18.70;;
14118;SDS011;7138;49.246;9.100;2022-12-18T14:41:16;51.70;;;21.25;;
14118;SDS011;7138;49.246;9.100;2022-12-18T14:43:44;47.95;;;19.90;;
14118;SDS011;7138;49.246;9.100;2022-12-18T14:46:27;37.67;;;14.37;;
14118;SDS011;7138;49.246;9.100;2022-12-18T14:48:59;50.25;;;19.77;;
14118;SDS011;7138;49.246;9.100;2022-12-18T14:51:28;46.92;;;19.17;;
14118;SDS011;7138;49.246;9.100;2022-12-18T14:53:57;48.85;;;19.05;;
14118;SDS011;7138;49.246;9.100;2022-12-18T14:56:26;51.30;;;20.48;;
14118;SDS011;7138;49.246;9.100;2022-12-18T14:58:55;48.65;;;18.90;;
14118;SDS011;7138;49.246;9.100;2022-12-18T15:01:27;49.63;;;20.00;;
14118;SDS011;7138;49.246;9.100;2022-12-18T15:03:57;44.20;;;18.02;;
14118;SDS011;7138;49.246;9.100;2022-12-18T15:06:26;45.20;;;17.95;;
14118;SDS011;7138;49.246;9.100;2022-12-18T15:08:58;52.50;;;19.60;;
14118;SDS011;7138;49.246;9.100;2022-12-18T15:11:29;53.35;;;20.70;;
14118;SDS011;7138;49.246;9.100;2022-12-18T15:16:51;47.22;;;20.15;;
14118;SDS011;7138;49.246;9.100;2022-12-18T15:19:19;48.22;;;19.90;;